createdAt,value
2022-10-03T00:01:21.978Z,14.37
2022-10-03T00:03:59.028Z,13.27
2022-10-03T00:06:34.011Z,10.37
2022-10-03T00:09:16.556Z,12.73
2022-10-03T00:12:00.620Z,13.60
2022-10-03T00:14:36.181Z,10.37
2022-10-03T00:17:10.899Z,8.47
2022-10-03T00:19:51.815Z,7.43
2022-10-03T00:22:30.972Z,6.37
2022-10-03T00:25:13.042Z,14.20
2022-10-03T00:27:46.755Z,10.77
2022-10-03T00:30:17.443Z,10.73
2022-10-03T00:33:03.314Z,9.83
2022-10-03T00:35:42.936Z,12.83
2022-10-03T00:38:24.063Z,7.13
2022-10-03T00:41:14.385Z,15.10
2022-10-03T00:44:19.888Z,10.73
2022-10-03T00:47:07.874Z,14.30
2022-10-03T00:49:59.998Z,15.20
2022-10-03T00:52:48.677Z,12.70
2022-10-03T00:55:24.294Z,17.40
2022-10-03T00:58:06.713Z,9.43
2022-10-03T01:00:34.954Z,9.30
2022-10-03T01:03:18.409Z,13.10
2022-10-03T01:05:56.319Z,16.30
2022-10-03T01:08:40.222Z,8.00
2022-10-03T01:11:19.140Z,19.13
2022-10-03T01:13:57.554Z,17.30
2022-10-03T01:16:33.999Z,12.33
2022-10-03T01:19:21.009Z,10.83
2022-10-03T01:21:54.908Z,8.23
2022-10-03T01:24:50.614Z,19.33
2022-10-03T01:27:26.211Z,12.50
2022-10-03T01:29:59.034Z,12.77
2022-10-03T01:32:33.155Z,9.53
2022-10-03T01:35:20.298Z,9.90
2022-10-03T01:37:57.425Z,14.97
2022-10-03T01:40:28.601Z,13.40
2022-10-03T01:43:03.113Z,16.20
2022-10-03T01:45:41.954Z,8.60
2022-10-03T01:48:15.153Z,8.63
2022-10-03T01:50:53.341Z,13.30
2022-10-03T01:53:26.793Z,10.57
2022-10-03T01:55:59.750Z,6.80
2022-10-03T01:58:33.666Z,15.73
2022-10-03T02:01:09.393Z,16.50
2022-10-03T02:03:44.244Z,14.10
2022-10-03T02:06:19.572Z,14.40
2022-10-03T02:08:54.305Z,12.50
2022-10-03T02:11:31.597Z,6.60
2022-10-03T02:14:07.322Z,15.13
2022-10-03T02:16:41.599Z,9.57
2022-10-03T02:19:18.827Z,11.00
2022-10-03T02:21:48.769Z,12.03
2022-10-03T02:24:37.559Z,6.97
2022-10-03T02:27:42.451Z,10.17
2022-10-03T02:30:18.020Z,8.90
2022-10-03T02:33:34.374Z,7.10
2022-10-03T02:36:31.349Z,14.90
2022-10-03T02:39:38.837Z,7.80
2022-10-03T02:42:39.866Z,8.80
2022-10-03T02:45:41.571Z,13.27
2022-10-03T02:48:51.580Z,12.10
2022-10-03T02:52:04.345Z,6.10
2022-10-03T02:54:54.987Z,7.30
2022-10-03T02:58:03.325Z,11.87
2022-10-03T03:00:46.800Z,10.23
2022-10-03T03:03:34.410Z,11.17
2022-10-03T03:06:47.793Z,13.80
2022-10-03T03:09:31.901Z,11.00
2022-10-03T03:12:28.890Z,6.73
2022-10-03T03:15:29.359Z,13.03
2022-10-03T03:18:06.104Z,6.27
2022-10-03T03:20:43.740Z,16.60
2022-10-03T03:23:45.963Z,21.90
2022-10-03T03:26:33.839Z,15.87
2022-10-03T03:29:10.821Z,14.80
2022-10-03T03:31:46.107Z,14.83
2022-10-03T03:34:20.078Z,13.70
2022-10-03T03:36:52.898Z,10.33
2022-10-03T03:39:45.781Z,8.80
2022-10-03T03:42:37.221Z,12.37
2022-10-03T03:45:25.280Z,11.97
2022-10-03T03:48:18.587Z,16.13
2022-10-03T03:50:54.374Z,16.73
2022-10-03T03:53:42.837Z,16.50
2022-10-03T03:56:29.239Z,8.60
2022-10-03T03:59:07.158Z,9.87
2022-10-03T04:01:58.456Z,17.30
2022-10-03T04:04:48.572Z,14.13
2022-10-03T04:07:27.668Z,10.57
2022-10-03T04:10:25.037Z,13.60
2022-10-03T04:13:33.547Z,8.40
2022-10-03T04:16:21.063Z,11.63
2022-10-03T04:19:02.423Z,9.27
2022-10-03T04:21:59.150Z,14.33
2022-10-03T04:24:51.823Z,11.07
2022-10-03T04:27:39.007Z,9.93
2022-10-03T04:30:12.190Z,14.10
2022-10-03T04:33:10.635Z,13.83
2022-10-03T04:36:12.146Z,9.47
2022-10-03T04:38:49.086Z,10.23
2022-10-03T04:41:25.497Z,9.47
2022-10-03T04:44:01.930Z,12.80
2022-10-03T04:46:37.685Z,9.90
2022-10-03T04:49:14.089Z,12.93
2022-10-03T04:51:55.378Z,11.00
2022-10-03T04:54:34.943Z,14.70
2022-10-03T04:57:07.797Z,8.80
2022-10-03T04:59:44.991Z,15.60
2022-10-03T05:02:36.602Z,12.60
2022-10-03T05:05:26.960Z,9.53
2022-10-03T05:08:03.883Z,11.47
2022-10-03T05:11:02.992Z,14.70
2022-10-03T05:13:37.495Z,13.00
2022-10-03T05:16:11.169Z,8.40
2022-10-03T05:18:46.458Z,12.80
2022-10-03T05:21:16.014Z,9.03
2022-10-03T05:23:52.850Z,9.23
2022-10-03T05:26:44.576Z,14.57
2022-10-03T05:29:20.210Z,12.93
2022-10-03T05:31:53.975Z,14.97
2022-10-03T05:34:39.061Z,10.03
2022-10-03T05:37:41.707Z,14.17
2022-10-03T05:40:16.407Z,10.93
2022-10-03T05:43:00.319Z,21.03
2022-10-03T05:45:32.144Z,17.53
2022-10-03T05:48:14.222Z,13.07
2022-10-03T05:51:10.740Z,14.37
2022-10-03T05:54:16.974Z,18.53
2022-10-03T05:57:11.948Z,7.77
2022-10-03T05:59:58.234Z,17.83
2022-10-03T06:03:00.465Z,13.67
2022-10-03T06:05:33.329Z,14.10
2022-10-03T06:08:44.165Z,13.90
2022-10-03T06:11:38.871Z,19.00
2022-10-03T06:14:32.123Z,9.80
2022-10-03T06:17:17.932Z,19.87
2022-10-03T06:19:51.602Z,11.97
2022-10-03T06:23:05.879Z,12.87
2022-10-03T06:26:01.786Z,10.93
2022-10-03T06:29:00.870Z,16.83
2022-10-03T06:32:03.486Z,11.97
2022-10-03T06:35:00.022Z,12.00
2022-10-03T06:37:59.584Z,14.10
2022-10-03T06:40:56.666Z,13.60
2022-10-03T06:43:52.345Z,13.27
2022-10-03T06:46:46.622Z,10.90
2022-10-03T06:49:41.517Z,18.23
2022-10-03T06:52:40.628Z,17.40
2022-10-03T06:55:37.110Z,14.27
2022-10-03T06:58:50.308Z,10.30
2022-10-03T07:01:49.488Z,16.70
2022-10-03T07:04:35.959Z,17.57
2022-10-03T07:07:20.256Z,11.63
2022-10-03T07:10:13.059Z,13.37
2022-10-03T07:13:09.245Z,15.80
2022-10-03T07:16:26.512Z,20.63
2022-10-03T07:19:19.220Z,9.20
2022-10-03T07:22:25.276Z,12.00
2022-10-03T07:25:39.815Z,12.60
2022-10-03T07:28:52.753Z,12.77
2022-10-03T07:31:36.811Z,13.83
2022-10-03T07:34:45.090Z,10.87
2022-10-03T07:37:26.730Z,14.73
2022-10-03T07:40:20.992Z,7.57
2022-10-03T07:43:24.105Z,13.80
2022-10-03T07:46:17.998Z,8.60
2022-10-03T07:49:15.021Z,17.47
2022-10-03T07:52:03.400Z,7.47
2022-10-03T07:55:04.943Z,17.87
2022-10-03T07:57:59.509Z,9.63
2022-10-03T08:00:40.376Z,10.33
2022-10-03T08:03:52.882Z,13.80
2022-10-03T08:06:31.250Z,13.83
2022-10-03T08:09:23.435Z,18.30
2022-10-03T08:12:22.081Z,20.80
2022-10-03T08:14:56.933Z,13.77
2022-10-03T08:18:08.160Z,9.67
2022-10-03T08:20:52.543Z,9.80
2022-10-03T08:24:07.666Z,9.97
2022-10-03T08:26:55.865Z,11.93
2022-10-03T08:29:49.182Z,14.60
2022-10-03T08:32:58.481Z,14.70
2022-10-03T08:36:01.273Z,11.83
2022-10-03T08:38:49.959Z,9.73
2022-10-03T08:42:01.818Z,13.60
2022-10-03T08:45:04.452Z,23.47
2022-10-03T08:48:08.499Z,21.90
2022-10-03T08:51:00.643Z,13.83
2022-10-03T08:54:18.295Z,16.57
2022-10-03T08:57:11.617Z,14.93
2022-10-03T09:00:04.589Z,19.43
2022-10-03T09:03:42.836Z,8.57
2022-10-03T09:07:16.052Z,13.53
2022-10-03T09:10:16.564Z,12.70
2022-10-03T09:13:13.264Z,12.73
2022-10-03T09:16:25.993Z,12.27
2022-10-03T09:19:18.818Z,10.63
2022-10-03T09:22:25.175Z,10.40
2022-10-03T09:25:14.833Z,6.97
2022-10-03T09:28:06.643Z,9.77
2022-10-03T09:30:46.648Z,7.93
2022-10-03T09:34:10.420Z,12.53
2022-10-03T09:37:13.114Z,12.70
2022-10-03T09:40:17.212Z,8.60
2022-10-03T09:43:22.581Z,12.73
2022-10-03T09:46:18.239Z,12.23
2022-10-03T09:49:12.141Z,8.40
2022-10-03T09:51:48.550Z,9.23
2022-10-03T09:54:51.550Z,14.60
2022-10-03T09:57:56.588Z,7.73
2022-10-03T10:00:29.928Z,8.80
2022-10-03T10:03:36.655Z,11.67
2022-10-03T10:06:16.116Z,11.10
2022-10-03T10:09:15.392Z,12.90
2022-10-03T10:12:14.630Z,10.80
2022-10-03T10:15:00.244Z,9.50
2022-10-03T10:18:01.798Z,11.80
2022-10-03T10:20:49.906Z,12.13
2022-10-03T10:23:36.733Z,9.30
2022-10-03T10:26:43.363Z,9.50
2022-10-03T10:29:57.063Z,16.03
2022-10-03T10:33:15.026Z,12.57
2022-10-03T10:36:30.127Z,13.80
2022-10-03T10:39:27.655Z,7.00
2022-10-03T10:42:26.952Z,7.20
2022-10-03T10:45:37.856Z,14.57
2022-10-03T10:48:52.321Z,3.50
2022-10-03T10:51:46.811Z,7.50
2022-10-03T10:54:41.269Z,9.00
2022-10-03T10:57:21.660Z,4.40
2022-10-03T11:00:32.136Z,7.83
2022-10-03T11:03:54.144Z,6.03
2022-10-03T11:06:58.460Z,9.83
2022-10-03T11:10:10.532Z,10.03
2022-10-03T11:13:25.938Z,9.03
2022-10-03T11:16:38.326Z,9.30
2022-10-03T11:20:01.576Z,8.87
2022-10-03T11:23:04.376Z,8.70
2022-10-03T11:26:06.783Z,6.13
2022-10-03T11:29:11.896Z,4.90
2022-10-03T11:32:25.014Z,4.90
2022-10-03T11:35:19.001Z,8.00
2022-10-03T11:37:51.221Z,5.80
2022-10-03T11:40:35.357Z,6.67
2022-10-03T11:43:40.770Z,8.60
2022-10-03T11:46:22.403Z,8.47
2022-10-03T11:48:56.609Z,7.97
2022-10-03T11:51:36.802Z,10.97
2022-10-03T11:54:30.534Z,7.47
2022-10-03T11:57:06.628Z,10.10
2022-10-03T11:59:45.293Z,7.33
2022-10-03T12:02:32.593Z,8.10
2022-10-03T12:05:07.739Z,5.70
2022-10-03T12:07:47.945Z,8.80
2022-10-03T12:10:26.779Z,4.90
2022-10-03T12:12:55.464Z,6.90
2022-10-03T12:15:34.378Z,7.23
2022-10-03T12:18:13.418Z,7.77
2022-10-03T12:21:09.937Z,8.70
2022-10-03T12:23:58.531Z,7.17
2022-10-03T12:26:38.403Z,5.30
2022-10-03T12:29:10.231Z,7.40
2022-10-03T12:31:42.494Z,10.07
2022-10-03T12:34:28.279Z,9.63
2022-10-03T12:37:08.945Z,10.53
2022-10-03T12:39:46.442Z,5.00
2022-10-03T12:42:26.946Z,5.97
2022-10-03T12:44:58.949Z,4.80
2022-10-03T12:47:54.310Z,7.53
2022-10-03T12:50:40.731Z,3.20
2022-10-03T12:53:25.135Z,2.63
2022-10-03T12:56:04.977Z,4.03
2022-10-03T12:58:43.567Z,6.57
2022-10-03T13:01:18.996Z,3.43
2022-10-03T13:03:53.851Z,4.97
2022-10-03T13:07:01.270Z,5.87
2022-10-03T13:09:36.980Z,3.40
2022-10-03T13:12:11.650Z,7.47
2022-10-03T13:15:20.620Z,4.97
2022-10-03T13:17:56.211Z,7.37
2022-10-03T13:20:29.792Z,4.93
2022-10-03T13:23:05.671Z,5.50
2022-10-03T13:25:39.444Z,5.53
2022-10-03T13:28:12.936Z,6.90
2022-10-03T13:30:47.225Z,3.97
2022-10-03T13:33:18.397Z,6.73
2022-10-03T13:35:50.158Z,5.40
2022-10-03T13:38:31.589Z,5.43
2022-10-03T13:41:08.662Z,7.23
2022-10-03T13:43:39.988Z,6.63
2022-10-03T13:46:12.832Z,5.57
2022-10-03T13:48:43.545Z,6.93
2022-10-03T13:51:24.159Z,7.20
2022-10-03T13:54:01.243Z,5.73
2022-10-03T13:56:41.069Z,2.80
2022-10-03T13:59:24.893Z,9.30
2022-10-03T14:02:00.637Z,7.93
2022-10-03T14:04:57.301Z,5.37
2022-10-03T14:07:35.278Z,7.83
2022-10-03T14:10:39.393Z,9.67
2022-10-03T14:13:18.040Z,6.17
2022-10-03T14:15:51.331Z,4.60
2022-10-03T14:18:31.597Z,6.40
2022-10-03T14:21:29.974Z,4.97
2022-10-03T14:24:10.904Z,6.07
2022-10-03T14:26:47.180Z,4.67
2022-10-03T14:29:23.041Z,3.93
2022-10-03T14:31:57.616Z,4.20
2022-10-03T14:34:36.575Z,5.00
2022-10-03T14:37:13.705Z,5.00
2022-10-03T14:39:45.332Z,5.20
2022-10-03T14:42:35.484Z,5.03
2022-10-03T14:45:06.659Z,4.97
2022-10-03T14:47:36.880Z,4.97
2022-10-03T14:50:05.083Z,5.63
2022-10-03T14:52:38.316Z,3.80
2022-10-03T14:55:12.316Z,2.63
2022-10-03T14:58:08.680Z,4.10
2022-10-03T15:00:38.261Z,3.37
2022-10-03T15:03:31.730Z,1.57
2022-10-03T15:06:02.919Z,2.60
2022-10-03T15:08:36.062Z,6.93
2022-10-03T15:11:04.435Z,2.93
2022-10-03T15:13:36.487Z,5.47
2022-10-03T15:16:03.692Z,1.30
2022-10-03T15:18:31.739Z,2.70
2022-10-03T15:20:58.805Z,2.70
2022-10-03T15:23:31.375Z,3.00
2022-10-03T15:25:58.534Z,4.20
2022-10-03T15:28:30.224Z,4.27
2022-10-03T15:31:09.448Z,3.63
2022-10-03T15:33:38.559Z,3.67
2022-10-03T15:36:14.077Z,4.17
2022-10-03T15:38:43.355Z,4.60
2022-10-03T15:41:14.625Z,3.23
2022-10-03T15:43:52.905Z,8.57
2022-10-03T15:46:31.907Z,7.73
2022-10-03T15:49:02.789Z,3.23
2022-10-03T15:51:30.536Z,6.97
2022-10-03T15:53:59.726Z,5.93
2022-10-03T15:56:31.868Z,6.73
2022-10-03T15:59:01.938Z,21.73
2022-10-03T16:01:34.518Z,12.30
2022-10-03T16:04:02.967Z,8.27
2022-10-03T16:06:39.068Z,5.27
2022-10-03T16:09:14.078Z,3.37
2022-10-03T16:11:53.182Z,8.33
2022-10-03T16:14:24.743Z,3.53
2022-10-03T16:16:56.316Z,5.40
2022-10-03T16:19:38.271Z,2.70
2022-10-03T16:22:15.739Z,6.07
2022-10-03T16:24:48.658Z,2.90
2022-10-03T16:27:19.576Z,5.03
2022-10-03T16:29:55.133Z,8.07
2022-10-03T16:32:27.133Z,8.73
2022-10-03T16:35:00.176Z,6.57
2022-10-03T16:37:28.474Z,3.20
2022-10-03T16:39:59.658Z,5.07
2022-10-03T16:42:35.668Z,6.03
2022-10-03T16:45:02.984Z,3.63
2022-10-03T16:47:37.144Z,3.43
2022-10-03T16:50:18.752Z,3.93
2022-10-03T16:52:51.221Z,5.50
2022-10-03T16:55:24.304Z,5.83
2022-10-03T16:57:56.278Z,8.67
2022-10-03T17:00:26.454Z,4.10
2022-10-03T17:02:55.654Z,7.80
2022-10-03T17:05:23.322Z,3.60
2022-10-03T17:07:53.940Z,5.93
2022-10-03T17:10:34.319Z,7.60
2022-10-03T17:13:05.598Z,6.97
2022-10-03T17:15:35.074Z,8.20
2022-10-03T17:18:16.323Z,8.50
2022-10-03T17:20:46.373Z,5.60
2022-10-03T17:23:24.003Z,7.57
2022-10-03T17:25:59.862Z,10.40
2022-10-03T17:28:36.458Z,4.23
2022-10-03T17:31:06.110Z,6.00
2022-10-03T17:33:41.344Z,4.83
2022-10-03T17:36:51.353Z,6.43
2022-10-03T17:39:33.811Z,5.77
2022-10-03T17:42:07.959Z,6.23
2022-10-03T17:44:38.261Z,5.27
2022-10-03T17:47:12.384Z,6.20
2022-10-03T17:49:50.078Z,3.67
2022-10-03T17:52:19.770Z,8.90
2022-10-03T17:54:48.366Z,8.27
2022-10-03T17:57:23.051Z,4.23
2022-10-03T17:59:59.387Z,4.53
2022-10-03T18:02:35.310Z,5.37
2022-10-03T18:05:12.450Z,7.00
2022-10-03T18:07:40.655Z,5.57
2022-10-03T18:10:19.153Z,5.60
2022-10-03T18:12:48.553Z,6.33
2022-10-03T18:15:36.559Z,5.30
2022-10-03T18:18:26.474Z,3.97
2022-10-03T18:21:00.133Z,6.33
2022-10-03T18:23:54.175Z,10.23
2022-10-03T18:26:26.995Z,11.60
2022-10-03T18:29:03.656Z,4.20
2022-10-03T18:31:31.961Z,5.17
2022-10-03T18:34:01.673Z,6.47
2022-10-03T18:36:33.734Z,6.53
2022-10-03T18:39:06.429Z,7.87
2022-10-03T18:41:34.039Z,6.03
2022-10-03T18:44:01.942Z,3.30
2022-10-03T18:46:33.467Z,5.57
2022-10-03T18:49:32.516Z,8.03
2022-10-03T18:51:59.254Z,10.57
2022-10-03T18:54:35.976Z,6.00
2022-10-03T18:57:11.010Z,7.80
2022-10-03T18:59:47.004Z,5.33
2022-10-03T19:02:21.404Z,5.67
2022-10-03T19:04:54.490Z,4.90
2022-10-03T19:07:24.660Z,5.73
2022-10-03T19:10:18.797Z,4.10
2022-10-03T19:12:48.777Z,6.23
2022-10-03T19:15:21.132Z,7.93
2022-10-03T19:18:03.330Z,4.93
2022-10-03T19:20:36.079Z,6.43
2022-10-03T19:23:11.427Z,10.63
2022-10-03T19:25:40.769Z,8.37
2022-10-03T19:28:16.829Z,2.30
2022-10-03T19:30:44.272Z,7.23
2022-10-03T19:33:19.183Z,4.77
2022-10-03T19:35:47.626Z,5.43
2022-10-03T19:38:18.172Z,4.10
2022-10-03T19:40:54.768Z,7.80
2022-10-03T19:43:35.101Z,3.80
2022-10-03T19:46:18.769Z,2.80
2022-10-03T19:48:49.525Z,10.20
2022-10-03T19:51:22.738Z,3.50
2022-10-03T19:53:54.976Z,4.00
2022-10-03T19:56:24.019Z,4.87
2022-10-03T19:59:00.506Z,3.97
2022-10-03T20:01:27.557Z,2.93
2022-10-03T20:03:56.391Z,7.47
2022-10-03T20:06:26.661Z,10.10
2022-10-03T20:08:59.170Z,9.80
2022-10-03T20:11:39.088Z,5.33
2022-10-03T20:14:06.701Z,7.20
2022-10-03T20:16:43.629Z,8.50
2022-10-03T20:19:13.301Z,4.37
2022-10-03T20:21:40.439Z,4.77
2022-10-03T20:24:20.006Z,8.27
2022-10-03T20:26:55.485Z,7.20
2022-10-03T20:29:30.353Z,4.97
2022-10-03T20:32:01.826Z,7.03
2022-10-03T20:34:30.039Z,9.47
2022-10-03T20:37:14.221Z,6.30
2022-10-03T20:39:45.775Z,7.93
2022-10-03T20:42:16.449Z,6.43
2022-10-03T20:44:53.673Z,4.97
2022-10-03T20:47:35.404Z,3.80
2022-10-03T20:50:11.179Z,6.50
2022-10-03T20:52:38.523Z,5.13
2022-10-03T20:55:16.451Z,7.20
2022-10-03T20:57:53.183Z,6.13
2022-10-03T21:00:23.867Z,4.13
2022-10-03T21:02:56.201Z,2.77
2022-10-03T21:05:25.447Z,11.10
2022-10-03T21:07:55.757Z,5.80
2022-10-03T21:10:28.776Z,2.90
2022-10-03T21:12:58.908Z,7.00
2022-10-03T21:15:37.875Z,9.10
2022-10-03T21:18:05.917Z,6.10
2022-10-03T21:20:37.356Z,3.37
2022-10-03T21:23:12.163Z,9.20
2022-10-03T21:25:42.462Z,5.87
2022-10-03T21:28:22.664Z,5.93
2022-10-03T21:31:03.299Z,8.80
2022-10-03T21:33:33.048Z,6.23
2022-10-03T21:36:07.911Z,4.47
2022-10-03T21:38:37.458Z,6.30
2022-10-03T21:41:23.823Z,3.43
2022-10-03T21:43:53.924Z,10.40
2022-10-03T21:46:26.468Z,7.20
2022-10-03T21:49:06.138Z,8.00
2022-10-03T21:51:42.646Z,7.43
2022-10-03T21:54:29.640Z,7.83
2022-10-03T21:57:09.282Z,8.13
2022-10-03T21:59:55.413Z,3.00
2022-10-03T22:02:31.855Z,13.60
2022-10-03T22:05:07.307Z,16.17
2022-10-03T22:07:40.241Z,7.40
2022-10-03T22:10:20.537Z,4.73
2022-10-03T22:12:55.310Z,10.93
2022-10-03T22:15:29.955Z,6.50
2022-10-03T22:18:00.587Z,8.03
2022-10-03T22:20:30.035Z,5.00
2022-10-03T22:23:20.334Z,4.00
2022-10-03T22:26:14.619Z,5.13
2022-10-03T22:28:52.015Z,5.10
2022-10-03T22:31:26.776Z,5.90
2022-10-03T22:34:10.538Z,6.13
2022-10-03T22:36:38.824Z,8.07
2022-10-03T22:39:09.593Z,5.10
2022-10-03T22:41:38.175Z,9.27
2022-10-03T22:44:09.986Z,5.20
2022-10-03T22:46:40.050Z,5.07
2022-10-03T22:49:11.371Z,4.70
2022-10-03T22:51:39.265Z,5.93
2022-10-03T22:54:10.869Z,4.00
2022-10-03T22:56:44.231Z,4.50
2022-10-03T22:59:18.532Z,7.00
2022-10-03T23:01:46.945Z,8.83
2022-10-03T23:04:18.697Z,6.90
2022-10-03T23:07:13.145Z,5.30
2022-10-03T23:09:49.765Z,3.70
2022-10-03T23:12:18.623Z,3.07
2022-10-03T23:14:50.227Z,6.20
2022-10-03T23:17:44.901Z,2.33
2022-10-03T23:20:17.231Z,10.73
2022-10-03T23:22:47.577Z,4.57
2022-10-03T23:25:20.491Z,4.47
2022-10-03T23:28:00.100Z,6.03
2022-10-03T23:30:52.630Z,3.50
2022-10-03T23:33:47.665Z,3.90
2022-10-03T23:36:17.810Z,5.00
2022-10-03T23:38:58.458Z,5.87
2022-10-03T23:41:55.945Z,6.00
2022-10-03T23:44:31.391Z,5.27
2022-10-03T23:47:00.742Z,3.30
2022-10-03T23:49:29.358Z,5.60
2022-10-03T23:51:58.694Z,7.90
2022-10-03T23:54:27.052Z,9.10
2022-10-03T23:56:54.091Z,5.70
2022-10-03T23:59:24.923Z,6.73
